Portada
METAR-TAF:

METAR-TAF

Aeroports :

Puerto Limón, Costa Rica

latitud: 10-00N, longitud: 083-03W, altitud: 5 m

Observació

L'informe es va fer fa 35 minuts, a les 20:00 UTC
Vent 4 kt del Sud-Oest
Temperatura 25°C
Humitat 89%
Pressió 1011 hPa
Visibilitat 10 km o més
Escasses núvols a una alçada de 2000 ft
Cel ennuvolat a una alçada de 12000 ft

METAR: MRLM 272000Z 23004KT 9999 FEW020 BKN120 25/23 A2985

Hora: 14:35 (20:35 UTC)

Pronòstic

L'informe es va fer fa 3 hores i 35 minuts, a les 17:00 UTC
Pronòstic vàlid del 27 a les 18 UTC al 28 a les 18 UTC
Vent 5 kt del Est/Nord-Est
Visibilitat 10 km o més
Escasses núvols a una alçada de 2500 ft
Núvols disperses a una alçada de 25000 ft
Evolucionant progressivament
l' 28 a les 00 UTC al 28 a les 02 UTC
Vent 4 kt del Oest/Sud-Oest
Evolucionant progressivament
l' 28 a les 14 UTC al 28 a les 16 UTC
Vent 4 kt del Est/Nord-Est

TAF: MRLM 271700Z 2718/2818 07005KT 9999 FEW025 SCT250 TX31/2720Z TN22/2811Z BECMG 2800/2802 25004KT BECMG 2814/2816 06004KT

Observacions i pronòstics meteorològics de més de 4000 aeroports (METAR i TAF).

Les estacions disponibles són els punts grocs i vermells al mapa.

Posi el ratolí al punt desitjat per veure el nom de l'estació.

Feu clic per veure les observacions i els pronòstics meteorològics.

Per canviar el mapa: feu clic els botons verds amb una creu de color negre per apropar; al botó verd amb un guió per allunyar la imatge; o en les fletxes verdes per a mapes adjacents.


METAR-TAF: